createdAt,value
2023-04-15T00:00:14.166Z,3.53
2023-04-15T00:01:19.508Z,3.97
2023-04-15T00:02:21.787Z,3.90
2023-04-15T00:03:23.945Z,3.78
2023-04-15T00:04:25.967Z,4.50
2023-04-15T00:05:29.604Z,4.72
2023-04-15T00:06:31.521Z,5.40
2023-04-15T00:07:33.402Z,5.53
2023-04-15T00:08:35.249Z,4.28
2023-04-15T00:09:37.050Z,4.80
2023-04-15T00:10:38.835Z,5.47
2023-04-15T00:11:40.548Z,6.30
2023-04-15T00:12:42.606Z,6.10
2023-04-15T00:13:44.730Z,6.97
2023-04-15T00:14:46.532Z,7.20
2023-04-15T00:15:48.209Z,6.65
2023-04-15T00:16:55.666Z,6.63
2023-04-15T00:17:57.953Z,6.78
2023-04-15T00:18:59.924Z,4.97
2023-04-15T00:20:01.901Z,5.07
2023-04-15T00:21:04.778Z,4.55
2023-04-15T00:22:07.187Z,4.72
2023-04-15T00:23:08.898Z,4.75
2023-04-15T00:24:10.643Z,5.22
2023-04-15T00:25:12.367Z,5.18
2023-04-15T00:26:14.339Z,5.25
2023-04-15T00:27:16.423Z,4.88
2023-04-15T00:28:18.967Z,5.60
2023-04-15T00:29:20.698Z,4.88
2023-04-15T00:30:22.679Z,4.95
2023-04-15T00:31:24.468Z,5.18
2023-04-15T00:32:26.334Z,5.32
2023-04-15T00:33:28.098Z,4.72
2023-04-15T00:34:30.101Z,5.05
2023-04-15T00:35:34.894Z,4.47
2023-04-15T00:36:36.745Z,4.88
2023-04-15T00:37:38.539Z,5.22
2023-04-15T00:38:40.318Z,5.13
2023-04-15T00:39:42.080Z,5.47
2023-04-15T00:40:43.809Z,5.05
2023-04-15T00:41:47.440Z,5.07
2023-04-15T00:42:49.135Z,5.40
2023-04-15T00:43:50.980Z,5.05
2023-04-15T00:44:52.676Z,4.90
2023-04-15T00:45:56.108Z,5.30
2023-04-15T00:46:58.629Z,5.28
2023-04-15T00:48:00.461Z,4.45
2023-04-15T00:49:04.577Z,4.68
2023-04-15T00:50:06.986Z,4.93
2023-04-15T00:51:09.809Z,4.50
2023-04-15T00:52:11.567Z,5.15
2023-04-15T00:53:13.249Z,4.30
2023-04-15T00:54:15.313Z,5.07
2023-04-15T00:55:17.137Z,4.50
2023-04-15T00:56:24.565Z,4.75
2023-04-15T00:57:27.189Z,3.88
2023-04-15T00:58:29.268Z,4.25
2023-04-15T00:59:31.831Z,4.35
2023-04-15T01:00:33.600Z,3.80
2023-04-15T01:01:38.702Z,3.88
2023-04-15T01:02:41.127Z,3.65
2023-04-15T01:03:43.189Z,3.92
2023-04-15T01:04:44.971Z,3.38
2023-04-15T01:05:46.885Z,3.40
2023-04-15T01:06:48.580Z,3.70
2023-04-15T01:07:50.388Z,3.22
2023-04-15T01:08:52.116Z,3.50
2023-04-15T01:09:54.084Z,3.78
2023-04-15T01:10:57.417Z,3.35
2023-04-15T01:11:59.468Z,4.18
2023-04-15T01:13:01.248Z,3.40
2023-04-15T01:14:03.310Z,3.40
2023-04-15T01:15:05.899Z,3.78
2023-04-15T01:16:08.978Z,3.80
2023-04-15T01:17:10.748Z,3.83
2023-04-15T01:18:12.636Z,3.65
2023-04-15T01:19:16.870Z,3.90
2023-04-15T01:20:18.813Z,4.07
2023-04-15T01:21:20.934Z,3.97
2023-04-15T01:22:23.926Z,3.70
2023-04-15T01:23:26.450Z,3.88
2023-04-15T01:24:30.482Z,3.72
2023-04-15T01:25:33.717Z,3.58
2023-04-15T01:26:38.709Z,3.80
2023-04-15T01:27:42.440Z,4.18
2023-04-15T01:28:44.325Z,3.88
2023-04-15T01:29:46.183Z,3.50
2023-04-15T01:30:48.116Z,3.90
2023-04-15T01:31:55.163Z,3.67
2023-04-15T01:32:57.091Z,3.92
2023-04-15T01:33:59.491Z,4.38
2023-04-15T01:35:01.526Z,4.13
2023-04-15T01:36:03.898Z,3.60
2023-04-15T01:37:05.666Z,4.10
2023-04-15T01:38:09.527Z,4.47
2023-04-15T01:39:11.319Z,6.03
2023-04-15T01:40:14.066Z,6.20
2023-04-15T01:41:15.770Z,5.57
2023-04-15T01:42:17.756Z,5.68
2023-04-15T01:43:19.839Z,5.40
2023-04-15T01:44:21.822Z,4.60
2023-04-15T01:45:23.729Z,4.72
2023-04-15T01:46:25.479Z,5.20
2023-04-15T01:47:27.236Z,4.72
2023-04-15T01:48:29.051Z,4.90
2023-04-15T01:49:30.798Z,4.30
2023-04-15T01:50:32.750Z,3.60
2023-04-15T01:51:34.425Z,3.50
2023-04-15T01:52:36.098Z,3.30
2023-04-15T01:53:37.950Z,3.53
2023-04-15T01:54:39.616Z,3.58
2023-04-15T01:55:41.927Z,4.53
2023-04-15T01:56:43.609Z,4.10
2023-04-15T01:57:45.446Z,3.95
2023-04-15T01:58:47.211Z,4.07
2023-04-15T01:59:48.940Z,4.25
2023-04-15T02:00:50.814Z,3.40
2023-04-15T02:01:52.721Z,4.10
2023-04-15T02:02:54.725Z,3.97
2023-04-15T02:03:56.943Z,4.38
2023-04-15T02:04:59.113Z,4.90
2023-04-15T02:06:00.947Z,3.97
2023-04-15T02:07:02.661Z,4.32
2023-04-15T02:08:04.431Z,3.95
2023-04-15T02:09:06.167Z,4.40
2023-04-15T02:10:08.163Z,3.92
2023-04-15T02:11:10.234Z,4.30
2023-04-15T02:12:12.745Z,4.13
2023-04-15T02:13:14.869Z,3.55
2023-04-15T02:14:16.649Z,4.15
2023-04-15T02:15:18.399Z,3.63
2023-04-15T02:16:20.678Z,3.90
2023-04-15T02:17:22.495Z,3.80
2023-04-15T02:18:24.224Z,3.50
2023-04-15T02:19:26.206Z,3.72
2023-04-15T02:20:28.088Z,3.90
2023-04-15T02:21:30.554Z,3.70
2023-04-15T02:22:32.451Z,3.70
2023-04-15T02:23:34.161Z,4.10
2023-04-15T02:24:36.080Z,4.95
2023-04-15T02:25:39.190Z,4.65
2023-04-15T02:26:40.917Z,5.00
2023-04-15T02:27:42.713Z,4.47
2023-04-15T02:28:44.434Z,4.53
2023-04-15T02:29:46.443Z,4.22
2023-04-15T02:30:53.506Z,5.22
2023-04-15T02:31:55.744Z,4.78
2023-04-15T02:32:57.658Z,4.70
2023-04-15T02:34:00.284Z,4.43
2023-04-15T02:35:05.880Z,6.10
2023-04-15T02:36:08.503Z,7.00
2023-04-15T02:37:12.102Z,6.28
2023-04-15T02:38:14.874Z,4.88
2023-04-15T02:39:18.716Z,5.00
2023-04-15T02:40:20.604Z,4.13
2023-04-15T02:41:27.264Z,4.07
2023-04-15T02:42:30.460Z,4.05
2023-04-15T02:43:32.188Z,4.25
2023-04-15T02:44:35.370Z,4.25
2023-04-15T02:45:37.156Z,4.00
2023-04-15T02:46:38.999Z,4.63
2023-04-15T02:47:44.592Z,4.40
2023-04-15T02:48:46.622Z,4.47
2023-04-15T02:49:48.391Z,4.53
2023-04-15T02:50:50.081Z,4.20
2023-04-15T02:51:51.975Z,4.00
2023-04-15T02:52:53.661Z,4.10
2023-04-15T02:53:55.383Z,3.97
2023-04-15T02:55:01.914Z,4.18
2023-04-15T02:56:03.766Z,3.58
2023-04-15T02:57:06.960Z,3.90
2023-04-15T02:58:08.661Z,3.90
2023-04-15T02:59:10.453Z,4.20
2023-04-15T03:00:12.877Z,4.22
2023-04-15T03:01:14.892Z,4.15
2023-04-15T03:02:16.824Z,4.35
2023-04-15T03:03:18.808Z,4.20
2023-04-15T03:04:20.685Z,4.47
2023-04-15T03:05:25.876Z,4.80
2023-04-15T03:06:27.798Z,5.15
2023-04-15T03:07:29.608Z,4.20
2023-04-15T03:08:31.600Z,4.43
2023-04-15T03:09:33.350Z,4.00
2023-04-15T03:10:35.012Z,4.13
2023-04-15T03:11:40.778Z,4.10
2023-04-15T03:12:42.576Z,4.07
2023-04-15T03:13:44.380Z,4.50
2023-04-15T03:14:46.080Z,4.55
2023-04-15T03:15:48.378Z,3.97
2023-04-15T03:16:54.296Z,3.70
2023-04-15T03:17:56.137Z,4.90
2023-04-15T03:18:57.900Z,6.20
2023-04-15T03:19:59.635Z,5.50
2023-04-15T03:21:01.588Z,4.65
2023-04-15T03:22:03.334Z,4.20
2023-04-15T03:23:05.360Z,4.57
2023-04-15T03:24:07.189Z,3.83
2023-04-15T03:25:09.382Z,3.13
2023-04-15T03:26:11.221Z,3.25
2023-04-15T03:27:13.354Z,3.55
2023-04-15T03:28:15.058Z,3.40
2023-04-15T03:29:16.785Z,4.13
2023-04-15T03:30:18.509Z,4.10
2023-04-15T03:31:20.305Z,3.42
2023-04-15T03:32:22.064Z,4.00
2023-04-15T03:33:23.869Z,3.47
2023-04-15T03:34:25.846Z,3.90
2023-04-15T03:35:27.548Z,4.07
2023-04-15T03:36:33.144Z,3.70
2023-04-15T03:37:34.860Z,3.17
2023-04-15T03:38:36.608Z,3.83
2023-04-15T03:39:38.353Z,4.65
2023-04-15T03:40:43.481Z,3.72
2023-04-15T03:41:45.181Z,3.88
2023-04-15T03:42:46.906Z,4.20
2023-04-15T03:43:48.637Z,4.10
2023-04-15T03:44:50.429Z,4.50
2023-04-15T03:45:52.202Z,4.40
2023-04-15T03:46:54.632Z,4.32
2023-04-15T03:47:57.386Z,4.00
2023-04-15T03:49:02.790Z,4.28
2023-04-15T03:50:05.189Z,4.22
2023-04-15T03:51:06.916Z,3.78
2023-04-15T03:52:08.618Z,4.00
2023-04-15T03:53:10.479Z,3.90
2023-04-15T03:54:13.011Z,4.05
2023-04-15T03:55:15.578Z,5.00
2023-04-15T03:56:17.395Z,5.40
2023-04-15T03:57:19.091Z,5.68
2023-04-15T03:58:20.892Z,5.47
2023-04-15T03:59:22.575Z,4.22
2023-04-15T04:00:24.297Z,7.55
2023-04-15T04:01:26.060Z,4.72
2023-04-15T04:02:28.461Z,4.07
2023-04-15T04:03:30.408Z,5.35
2023-04-15T04:04:32.662Z,4.95
2023-04-15T04:05:37.250Z,4.70
2023-04-15T04:06:39.699Z,5.15
2023-04-15T04:07:41.584Z,4.93
2023-04-15T04:08:43.692Z,4.85
2023-04-15T04:09:47.301Z,4.55
2023-04-15T04:10:49.216Z,4.95
2023-04-15T04:11:50.899Z,4.90
2023-04-15T04:12:52.612Z,6.22
2023-04-15T04:13:54.420Z,5.22
2023-04-15T04:14:56.512Z,5.50
2023-04-15T04:15:58.338Z,5.60
2023-04-15T04:17:00.144Z,6.30
2023-04-15T04:18:02.012Z,6.43
2023-04-15T04:19:04.000Z,7.10
2023-04-15T04:20:06.824Z,5.53
2023-04-15T04:21:08.623Z,6.40
2023-04-15T04:22:10.672Z,11.48
2023-04-15T04:23:12.518Z,34.88
2023-04-15T04:24:14.265Z,21.73
2023-04-15T04:25:16.455Z,12.30
2023-04-15T04:26:18.202Z,8.82
2023-04-15T04:27:19.903Z,7.13
2023-04-15T04:28:21.830Z,9.45
2023-04-15T04:29:23.665Z,6.75
2023-04-15T04:30:25.410Z,5.50
2023-04-15T04:31:27.480Z,6.00
2023-04-15T04:32:29.349Z,5.13
2023-04-15T04:33:31.346Z,5.95
2023-04-15T04:34:33.229Z,5.57
2023-04-15T04:35:37.793Z,4.70
2023-04-15T04:36:39.536Z,4.90
2023-04-15T04:37:41.221Z,5.05
2023-04-15T04:38:42.977Z,5.30
2023-04-15T04:39:44.703Z,4.82
2023-04-15T04:40:46.761Z,5.25
2023-04-15T04:41:48.501Z,5.13
2023-04-15T04:42:50.234Z,5.15
2023-04-15T04:43:52.103Z,4.78
2023-04-15T04:44:53.799Z,4.30
2023-04-15T04:45:55.902Z,5.22
2023-04-15T04:46:57.659Z,4.72
2023-04-15T04:47:59.460Z,5.38
2023-04-15T04:49:04.225Z,5.82
2023-04-15T04:50:06.967Z,5.10
2023-04-15T04:51:09.564Z,5.18
2023-04-15T04:52:11.746Z,4.55
2023-04-15T04:53:13.557Z,4.43
2023-04-15T04:54:15.271Z,5.75
2023-04-15T04:55:16.965Z,5.20
2023-04-15T04:56:18.662Z,4.45
2023-04-15T04:57:20.378Z,4.40
2023-04-15T04:58:22.086Z,3.45
2023-04-15T04:59:24.230Z,4.03
2023-04-15T05:00:25.904Z,4.03
2023-04-15T05:01:27.697Z,3.60
2023-04-15T05:02:29.574Z,3.58
2023-04-15T05:03:31.532Z,3.50
2023-04-15T05:04:33.369Z,3.88
2023-04-15T05:05:37.035Z,4.10
2023-04-15T05:06:38.728Z,4.30
2023-04-15T05:07:40.736Z,4.22
2023-04-15T05:08:42.464Z,4.30
2023-04-15T05:09:44.163Z,3.85
2023-04-15T05:10:46.035Z,4.20
2023-04-15T05:11:47.785Z,3.80
2023-04-15T05:12:49.694Z,3.70
2023-04-15T05:13:51.427Z,3.72
2023-04-15T05:14:53.121Z,4.10
2023-04-15T05:15:54.881Z,3.50
2023-04-15T05:16:57.017Z,3.65
2023-04-15T05:17:58.853Z,3.67
2023-04-15T05:19:01.018Z,3.72
2023-04-15T05:20:03.871Z,3.00
2023-04-15T05:21:06.077Z,3.45
2023-04-15T05:22:11.035Z,3.95
2023-04-15T05:23:12.806Z,3.72
2023-04-15T05:24:15.582Z,3.90
2023-04-15T05:25:17.328Z,3.60
2023-04-15T05:26:19.098Z,3.35
2023-04-15T05:27:20.907Z,3.80
2023-04-15T05:28:22.638Z,3.67
2023-04-15T05:29:24.379Z,3.25
2023-04-15T05:30:26.748Z,3.28
2023-04-15T05:31:28.512Z,3.40
2023-04-15T05:32:30.307Z,3.22
2023-04-15T05:33:32.048Z,3.20
2023-04-15T05:34:33.774Z,3.05
2023-04-15T05:35:35.825Z,3.20
2023-04-15T05:36:37.688Z,3.38
2023-04-15T05:37:39.411Z,3.70
2023-04-15T05:38:41.385Z,3.13
2023-04-15T05:39:43.475Z,3.55
2023-04-15T05:40:45.151Z,4.10
2023-04-15T05:41:46.880Z,4.35
2023-04-15T05:42:48.674Z,3.95
2023-04-15T05:43:50.367Z,5.65
2023-04-15T05:44:52.171Z,3.80
2023-04-15T05:45:54.232Z,3.45
2023-04-15T05:46:55.938Z,3.60
2023-04-15T05:47:57.684Z,3.13
2023-04-15T05:48:59.600Z,3.13
2023-04-15T05:50:01.788Z,3.00
2023-04-15T05:51:03.680Z,3.17
2023-04-15T05:52:05.843Z,2.42
2023-04-15T05:53:08.453Z,2.40
2023-04-15T05:54:10.191Z,2.47
2023-04-15T05:55:12.556Z,2.28
2023-04-15T05:56:14.367Z,1.95
2023-04-15T05:57:16.263Z,2.20
2023-04-15T05:58:18.005Z,2.30
2023-04-15T05:59:19.773Z,2.13
2023-04-15T06:00:21.465Z,2.40
2023-04-15T06:01:23.192Z,2.25
2023-04-15T06:02:28.135Z,2.30
2023-04-15T06:03:30.823Z,2.50
2023-04-15T06:04:32.901Z,2.75
2023-04-15T06:05:34.803Z,2.92
2023-04-15T06:06:36.559Z,3.10
2023-04-15T06:07:38.923Z,2.55
2023-04-15T06:08:40.696Z,3.28
2023-04-15T06:09:42.398Z,3.30
2023-04-15T06:10:44.160Z,3.65
2023-04-15T06:11:45.883Z,3.60
2023-04-15T06:12:47.711Z,3.42
2023-04-15T06:13:49.565Z,3.30
2023-04-15T06:14:51.434Z,3.40
2023-04-15T06:15:53.758Z,2.85
2023-04-15T06:16:55.502Z,2.78
2023-04-15T06:17:57.492Z,3.10
2023-04-15T06:18:59.343Z,2.83
2023-04-15T06:20:01.255Z,3.00
2023-04-15T06:21:03.083Z,2.75
2023-04-15T06:22:07.033Z,3.03
2023-04-15T06:23:08.744Z,3.15
2023-04-15T06:24:10.505Z,2.60
2023-04-15T06:25:12.287Z,2.67
2023-04-15T06:26:13.987Z,3.10
2023-04-15T06:27:15.817Z,3.08
2023-04-15T06:28:18.849Z,2.65
2023-04-15T06:29:20.705Z,2.90
2023-04-15T06:30:23.975Z,2.65
2023-04-15T06:31:26.355Z,2.50
2023-04-15T06:32:28.125Z,3.13
2023-04-15T06:33:30.200Z,3.00
2023-04-15T06:34:32.048Z,2.60
2023-04-15T06:35:33.815Z,3.13
2023-04-15T06:36:35.700Z,2.92
2023-04-15T06:37:37.407Z,2.65
2023-04-15T06:38:39.099Z,2.53
2023-04-15T06:39:40.788Z,3.00
2023-04-15T06:40:42.989Z,2.53
2023-04-15T06:41:44.717Z,2.30
2023-04-15T06:42:46.602Z,2.42
2023-04-15T06:43:48.377Z,2.58
2023-04-15T06:44:50.534Z,2.25
2023-04-15T06:45:52.652Z,2.15
2023-04-15T06:46:54.673Z,2.22
2023-04-15T06:47:56.417Z,2.38
2023-04-15T06:48:59.330Z,2.45
2023-04-15T06:50:01.112Z,2.38
2023-04-15T06:51:04.213Z,2.70
2023-04-15T06:52:06.046Z,2.17
2023-04-15T06:53:07.782Z,2.42
2023-04-15T06:54:09.501Z,2.50
2023-04-15T06:55:11.520Z,2.78
2023-04-15T06:56:13.289Z,2.40
2023-04-15T06:57:14.981Z,2.33
2023-04-15T06:58:17.343Z,2.25
2023-04-15T06:59:19.178Z,2.30
2023-04-15T07:00:21.227Z,2.00
2023-04-15T07:01:23.390Z,2.15
2023-04-15T07:02:25.280Z,2.30
2023-04-15T07:03:27.316Z,2.28
2023-04-15T07:04:29.136Z,2.40
2023-04-15T07:05:32.549Z,2.00
2023-04-15T07:06:35.732Z,2.08
2023-04-15T07:07:38.527Z,1.92
2023-04-15T07:08:40.421Z,1.90
2023-04-15T07:09:42.213Z,1.80
2023-04-15T07:10:43.986Z,1.70
2023-04-15T07:11:45.772Z,2.00
2023-04-15T07:12:48.817Z,1.95
2023-04-15T07:13:50.489Z,1.80
2023-04-15T07:14:52.290Z,2.05
2023-04-15T07:15:53.975Z,2.10
2023-04-15T07:16:55.929Z,2.13
2023-04-15T07:17:57.753Z,1.80
2023-04-15T07:18:59.857Z,1.90
2023-04-15T07:20:01.996Z,2.10
2023-04-15T07:21:03.996Z,2.00
2023-04-15T07:22:05.791Z,1.70
2023-04-15T07:23:08.096Z,1.98
2023-04-15T07:24:10.677Z,2.38
2023-04-15T07:25:12.581Z,2.53
2023-04-15T07:26:14.290Z,2.33
2023-04-15T07:27:16.047Z,2.20
2023-04-15T07:28:18.038Z,2.30
2023-04-15T07:29:19.754Z,2.20
2023-04-15T07:30:21.495Z,1.98
2023-04-15T07:31:23.372Z,2.45
2023-04-15T07:32:25.193Z,2.30
2023-04-15T07:33:28.455Z,1.92
2023-04-15T07:34:31.429Z,2.58
2023-04-15T07:35:34.307Z,2.10
2023-04-15T07:36:36.938Z,2.50
2023-04-15T07:37:38.770Z,1.90
2023-04-15T07:38:40.535Z,2.25
2023-04-15T07:39:42.845Z,1.73
2023-04-15T07:40:45.121Z,1.77
2023-04-15T07:41:46.841Z,2.15
2023-04-15T07:42:49.592Z,2.28
2023-04-15T07:43:51.687Z,2.15
2023-04-15T07:44:53.458Z,2.33
2023-04-15T07:45:55.843Z,2.40
2023-04-15T07:46:57.824Z,2.00
2023-04-15T07:47:59.557Z,2.25
2023-04-15T07:49:01.684Z,2.40
2023-04-15T07:50:03.822Z,1.88
2023-04-15T07:51:06.733Z,2.42
2023-04-15T07:52:08.655Z,2.17
2023-04-15T07:53:10.406Z,2.30
2023-04-15T07:54:12.116Z,2.15
2023-04-15T07:55:13.990Z,2.22
2023-04-15T07:56:15.864Z,2.03
2023-04-15T07:57:17.958Z,2.28
2023-04-15T07:58:21.585Z,2.22
2023-04-15T07:59:23.317Z,2.70
2023-04-15T08:00:25.108Z,2.70
2023-04-15T08:01:26.901Z,2.40
2023-04-15T08:02:28.712Z,2.40
2023-04-15T08:03:30.605Z,2.50
2023-04-15T08:04:34.284Z,2.53
2023-04-15T08:05:36.107Z,2.47
2023-04-15T08:06:40.103Z,2.38
2023-04-15T08:07:42.018Z,2.85
2023-04-15T08:08:44.120Z,2.40
2023-04-15T08:09:48.279Z,2.60
2023-04-15T08:10:52.505Z,2.38
2023-04-15T08:11:54.709Z,2.30
2023-04-15T08:12:56.608Z,2.30
2023-04-15T08:13:58.355Z,2.67
2023-04-15T08:15:01.109Z,2.15
2023-04-15T08:16:19.045Z,2.25
2023-04-15T08:17:21.216Z,2.28
2023-04-15T08:18:23.094Z,2.38
2023-04-15T08:19:24.891Z,2.53
2023-04-15T08:20:26.826Z,2.42
2023-04-15T08:21:28.746Z,2.30
2023-04-15T08:22:30.565Z,2.20
2023-04-15T08:23:33.896Z,2.40
2023-04-15T08:24:35.615Z,2.40
2023-04-15T08:25:38.098Z,2.40
2023-04-15T08:26:39.922Z,2.30
2023-04-15T08:27:41.658Z,2.28
2023-04-15T08:28:45.630Z,2.20
2023-04-15T08:29:47.322Z,2.47
2023-04-15T08:30:49.221Z,2.05
2023-04-15T08:31:51.091Z,2.60
2023-04-15T08:32:52.922Z,2.03
2023-04-15T08:33:56.981Z,2.35
2023-04-15T08:34:58.745Z,2.30
2023-04-15T08:36:00.470Z,2.15
2023-04-15T08:37:02.207Z,1.90
2023-04-15T08:38:03.918Z,2.63
2023-04-15T08:39:05.695Z,2.60
2023-04-15T08:40:08.682Z,2.60
2023-04-15T08:41:18.824Z,2.45
2023-04-15T08:42:27.918Z,2.50
2023-04-15T08:43:35.996Z,2.25
2023-04-15T08:44:38.413Z,2.58
2023-04-15T08:45:40.120Z,2.55
2023-04-15T08:46:43.023Z,2.42
2023-04-15T08:47:47.559Z,2.42
2023-04-15T08:48:49.785Z,2.78
2023-04-15T08:49:54.483Z,2.67
2023-04-15T08:50:56.899Z,2.30
2023-04-15T08:52:00.047Z,2.47
2023-04-15T08:53:02.702Z,2.10
2023-04-15T08:54:05.105Z,2.20
2023-04-15T08:55:09.141Z,2.47
2023-04-15T08:56:14.344Z,2.10
2023-04-15T08:57:16.575Z,2.35
2023-04-15T08:58:22.376Z,2.42
2023-04-15T08:59:24.307Z,2.40
2023-04-15T09:00:27.224Z,2.20
2023-04-15T09:01:31.595Z,2.25
2023-04-15T09:02:36.541Z,2.30
2023-04-15T09:03:39.029Z,2.20
2023-04-15T09:04:41.543Z,1.90
2023-04-15T09:05:43.458Z,2.00
2023-04-15T09:06:45.206Z,2.05
2023-04-15T09:07:47.094Z,2.00
2023-04-15T09:08:49.984Z,2.00
2023-04-15T09:09:52.454Z,2.25
2023-04-15T09:10:54.965Z,2.05
2023-04-15T09:11:56.929Z,2.15
2023-04-15T09:12:58.947Z,2.40
2023-04-15T09:14:00.645Z,1.98
2023-04-15T09:15:03.047Z,2.15
2023-04-15T09:16:06.576Z,2.00
2023-04-15T09:17:10.701Z,1.90
2023-04-15T09:18:13.841Z,2.10
2023-04-15T09:19:23.934Z,1.80
2023-04-15T09:20:25.623Z,1.90
2023-04-15T09:21:27.869Z,1.80
2023-04-15T09:22:33.099Z,2.00
2023-04-15T09:23:36.307Z,1.83
2023-04-15T09:24:41.124Z,1.90
2023-04-15T09:25:42.842Z,1.73
2023-04-15T09:26:44.706Z,2.00
2023-04-15T09:27:51.063Z,1.90
2023-04-15T09:28:52.787Z,2.13
2023-04-15T09:29:54.508Z,2.00
2023-04-15T09:30:57.969Z,2.00
2023-04-15T09:32:25.804Z,1.90
2023-04-15T09:33:29.272Z,2.30
2023-04-15T09:34:38.039Z,2.13
2023-04-15T09:35:42.353Z,2.08
2023-04-15T09:36:55.015Z,1.75
2023-04-15T09:38:07.733Z,2.28
2023-04-15T09:39:09.485Z,2.47
2023-04-15T09:40:11.917Z,2.42
2023-04-15T09:41:23.445Z,2.30
2023-04-15T09:42:28.796Z,2.30
2023-04-15T09:43:40.904Z,2.38
2023-04-15T09:44:42.679Z,1.95
2023-04-15T09:45:52.227Z,2.80
2023-04-15T09:46:54.126Z,2.17
2023-04-15T09:47:59.203Z,2.53
2023-04-15T09:49:12.071Z,2.40
2023-04-15T09:50:14.801Z,2.33
2023-04-15T09:51:16.527Z,2.70
2023-04-15T09:52:18.201Z,2.53
2023-04-15T09:53:22.042Z,3.22
2023-04-15T09:54:23.728Z,2.50
2023-04-15T09:55:25.497Z,2.58
2023-04-15T09:56:36.267Z,2.50
2023-04-15T09:57:41.505Z,2.20
2023-04-15T09:58:43.349Z,2.08
2023-04-15T09:59:45.084Z,2.33
2023-04-15T10:00:51.835Z,2.75
2023-04-15T10:01:53.713Z,2.33
2023-04-15T10:02:56.420Z,3.03
2023-04-15T10:03:58.884Z,2.75
2023-04-15T10:05:02.444Z,2.65
2023-04-15T10:06:05.796Z,2.47
2023-04-15T10:07:09.833Z,2.67
2023-04-15T10:08:13.089Z,2.90
2023-04-15T10:09:14.778Z,3.05
2023-04-15T10:10:17.141Z,2.88
2023-04-15T10:11:24.189Z,3.35
2023-04-15T10:12:27.475Z,2.60
2023-04-15T10:13:33.492Z,2.90
2023-04-15T10:14:38.829Z,2.83
2023-04-15T10:15:44.167Z,2.83
2023-04-15T10:16:49.220Z,2.65
2023-04-15T10:17:53.586Z,2.92
2023-04-15T10:18:56.640Z,2.60
2023-04-15T10:20:00.382Z,2.65
2023-04-15T10:21:02.462Z,2.80
2023-04-15T10:22:04.743Z,2.25
2023-04-15T10:23:09.485Z,2.50
2023-04-15T10:24:13.168Z,2.70
2023-04-15T10:25:16.542Z,2.33
2023-04-15T10:26:18.870Z,2.22
2023-04-15T10:27:21.186Z,2.17
2023-04-15T10:28:23.095Z,2.20
2023-04-15T10:29:27.427Z,2.05
2023-04-15T10:30:29.386Z,2.05
2023-04-15T10:31:31.971Z,2.10
2023-04-15T10:32:34.240Z,2.00
2023-04-15T10:33:36.462Z,2.33
2023-04-15T10:34:38.622Z,2.08
2023-04-15T10:35:40.838Z,2.10
2023-04-15T10:36:42.558Z,1.88
2023-04-15T10:37:44.267Z,2.10
2023-04-15T10:38:46.924Z,2.20
2023-04-15T10:39:49.199Z,1.80
2023-04-15T10:40:51.051Z,1.67
2023-04-15T10:42:16.063Z,1.75
2023-04-15T10:43:27.359Z,1.90
2023-04-15T10:44:29.066Z,2.20
2023-04-15T10:45:37.043Z,1.95
2023-04-15T10:46:45.923Z,2.33
2023-04-15T10:47:52.913Z,2.15
2023-04-15T10:48:55.074Z,2.20
2023-04-15T10:50:02.476Z,2.38
2023-04-15T10:51:06.059Z,2.10
2023-04-15T10:52:08.551Z,2.83
2023-04-15T10:53:10.870Z,2.90
2023-04-15T10:54:24.657Z,2.25
2023-04-15T10:55:31.468Z,2.55
2023-04-15T10:56:33.194Z,3.08
2023-04-15T10:57:37.920Z,2.67
2023-04-15T10:58:43.917Z,2.60
2023-04-15T11:00:28.988Z,2.33
2023-04-15T11:01:53.445Z,3.00
2023-04-15T11:02:59.521Z,3.13
2023-04-15T11:04:02.069Z,3.20
2023-04-15T11:05:04.407Z,3.45
2023-04-15T11:06:07.169Z,3.08
2023-04-15T11:07:08.906Z,3.65
2023-04-15T11:08:12.510Z,3.47
2023-04-15T11:09:33.927Z,4.03
2023-04-15T11:10:35.599Z,3.53
2023-04-15T11:12:07.195Z,3.85
2023-04-15T11:13:11.765Z,4.45
2023-04-15T11:14:16.675Z,4.47
2023-04-15T11:15:34.769Z,4.80
2023-04-15T11:16:45.031Z,3.97
2023-04-15T11:17:46.996Z,4.25
2023-04-15T11:18:56.064Z,4.03
2023-04-15T11:19:58.509Z,3.70
2023-04-15T11:21:03.565Z,3.60
2023-04-15T11:22:10.055Z,3.80
2023-04-15T11:23:14.534Z,3.88
2023-04-15T11:24:27.335Z,3.85
2023-04-15T11:25:31.065Z,3.70
2023-04-15T11:26:33.051Z,4.95
2023-04-15T11:27:34.736Z,3.28
2023-04-15T11:28:38.905Z,3.08
2023-04-15T11:29:40.926Z,2.90
2023-04-15T11:30:43.426Z,3.40
2023-04-15T11:31:49.752Z,3.50
2023-04-15T11:32:52.767Z,3.72
2023-04-15T11:34:00.209Z,3.38
2023-04-15T11:35:01.977Z,3.40
2023-04-15T11:36:04.510Z,3.42
2023-04-15T11:37:08.008Z,3.78
2023-04-15T11:38:12.233Z,3.42
2023-04-15T11:39:14.080Z,3.78
2023-04-15T11:40:17.749Z,3.80
2023-04-15T11:41:27.688Z,3.60
2023-04-15T11:42:39.327Z,2.95
2023-04-15T11:43:48.586Z,3.60
2023-04-15T11:44:50.367Z,3.78
2023-04-15T11:45:56.470Z,4.40
2023-04-15T11:46:58.276Z,3.78
2023-04-15T11:48:11.546Z,3.97
2023-04-15T11:49:26.750Z,4.32
2023-04-15T11:50:28.507Z,4.45
2023-04-15T11:51:34.411Z,3.85
2023-04-15T11:52:36.282Z,4.38
2023-04-15T11:53:50.701Z,4.32
2023-04-15T11:54:52.637Z,4.25
2023-04-15T11:55:54.428Z,4.18
2023-04-15T11:56:57.489Z,3.92
2023-04-15T11:58:17.021Z,4.35
2023-04-15T11:59:18.794Z,3.70
2023-04-15T12:00:21.024Z,3.90
2023-04-15T12:01:32.294Z,3.40
2023-04-15T12:02:37.459Z,3.90
2023-04-15T12:03:44.217Z,3.30
2023-04-15T12:04:46.899Z,3.50
2023-04-15T12:06:13.158Z,3.25
2023-04-15T12:07:14.894Z,3.10
2023-04-15T12:08:17.133Z,3.03
2023-04-15T12:09:20.486Z,3.25
2023-04-15T12:10:25.024Z,3.03
2023-04-15T12:11:26.706Z,2.65
2023-04-15T12:12:29.502Z,2.30
2023-04-15T12:13:31.744Z,2.92
2023-04-15T12:14:33.930Z,2.17
2023-04-15T12:15:39.405Z,2.50
2023-04-15T12:16:50.332Z,2.92
2023-04-15T12:17:55.755Z,3.22
2023-04-15T12:18:59.756Z,3.05
2023-04-15T12:20:01.485Z,2.80
2023-04-15T12:21:12.453Z,3.17
2023-04-15T12:22:17.289Z,2.65
2023-04-15T12:23:21.783Z,2.78
2023-04-15T12:24:23.832Z,2.80
2023-04-15T12:25:35.669Z,2.55
2023-04-15T12:26:44.132Z,2.95
2023-04-15T12:27:52.215Z,3.00
2023-04-15T12:29:07.529Z,2.58
2023-04-15T12:30:09.737Z,3.05
2023-04-15T12:31:13.149Z,2.80
2023-04-15T12:32:21.034Z,2.38
2023-04-15T12:33:22.953Z,2.33
2023-04-15T12:34:34.413Z,2.88
2023-04-15T12:35:36.413Z,2.10
2023-04-15T12:36:38.126Z,2.38
2023-04-15T12:37:40.503Z,1.85
2023-04-15T12:38:42.325Z,1.88
2023-04-15T12:39:46.185Z,2.00
2023-04-15T12:40:48.104Z,1.80
2023-04-15T12:41:49.797Z,2.08
2023-04-15T12:42:51.487Z,2.05
2023-04-15T12:43:53.235Z,2.08
2023-04-15T12:44:54.954Z,1.98
2023-04-15T12:45:56.998Z,2.20
2023-04-15T12:47:00.072Z,2.05
2023-04-15T12:48:02.094Z,2.33
2023-04-15T12:49:04.142Z,2.00
2023-04-15T12:50:06.534Z,1.80
2023-04-15T12:51:08.433Z,2.10
2023-04-15T12:52:10.213Z,2.00
2023-04-15T12:53:11.893Z,1.90
2023-04-15T12:54:13.585Z,1.90
2023-04-15T12:55:15.375Z,1.80
2023-04-15T12:56:17.224Z,1.67
2023-04-15T12:57:18.934Z,2.08
2023-04-15T12:58:21.634Z,2.15
2023-04-15T12:59:24.623Z,1.80
2023-04-15T13:00:26.362Z,2.00
2023-04-15T13:01:28.136Z,1.83
2023-04-15T13:02:32.319Z,1.75
2023-04-15T13:03:34.401Z,1.75
2023-04-15T13:04:36.247Z,1.73
2023-04-15T13:05:42.226Z,1.70
2023-04-15T13:06:44.182Z,1.80
2023-04-15T13:07:46.466Z,1.80
2023-04-15T13:08:57.802Z,2.03
2023-04-15T13:10:00.549Z,1.95
2023-04-15T13:11:02.247Z,1.65
2023-04-15T13:12:05.519Z,1.88
2023-04-15T13:13:07.251Z,1.50
2023-04-15T13:14:11.790Z,2.03
2023-04-15T13:15:13.698Z,1.48
2023-04-15T13:16:15.916Z,1.63
2023-04-15T13:17:20.435Z,1.88
2023-04-15T13:18:26.834Z,1.60
2023-04-15T13:19:28.591Z,1.60
2023-04-15T13:20:30.643Z,1.58
2023-04-15T13:21:35.710Z,1.77
2023-04-15T13:22:38.045Z,1.75
2023-04-15T13:23:41.404Z,1.80
2023-04-15T13:24:43.113Z,2.22
2023-04-15T13:25:44.788Z,1.77
2023-04-15T13:26:48.043Z,2.55
2023-04-15T13:27:51.556Z,1.77
2023-04-15T13:28:53.268Z,1.65
2023-04-15T13:29:55.254Z,1.70
2023-04-15T13:30:57.025Z,1.98
2023-04-15T13:31:58.882Z,1.95
2023-04-15T13:33:00.786Z,1.75
2023-04-15T13:34:02.680Z,1.70
2023-04-15T13:35:05.352Z,1.73
2023-04-15T13:36:07.233Z,1.90
2023-04-15T13:37:10.167Z,1.52
2023-04-15T13:38:11.995Z,1.98
2023-04-15T13:39:13.694Z,1.80
2023-04-15T13:40:15.672Z,1.70
2023-04-15T13:41:17.359Z,1.70
2023-04-15T13:42:19.031Z,1.80
2023-04-15T13:43:22.288Z,1.52
2023-04-15T13:44:27.282Z,1.60
2023-04-15T13:45:29.095Z,1.50
2023-04-15T13:46:30.833Z,2.13
2023-04-15T13:47:32.602Z,1.55
2023-04-15T13:48:34.357Z,1.65
2023-04-15T13:49:36.175Z,1.63
2023-04-15T13:50:38.626Z,1.77
2023-04-15T13:51:42.491Z,1.92
2023-04-15T13:52:44.211Z,1.70
2023-04-15T13:53:46.048Z,1.50
2023-04-15T13:54:47.938Z,1.60
2023-04-15T13:56:10.410Z,1.67
2023-04-15T13:57:12.136Z,1.70
2023-04-15T13:58:13.838Z,1.80
2023-04-15T13:59:15.519Z,1.75
2023-04-15T14:00:18.731Z,1.67